Time;durP1;ratioP1;P1;durP2;ratioP2;P2;SDS_P1;SDS_P2;PMS_P1;PMS_P2;Temp;Humidity;BMP_temperature;BMP_pressure;BME280_temperature;BME280_humidity;BME280_pressure;Samples;Min_cycle;Max_cycle;Signal;HPM_P1;HPM_P2
2022/04/10 00:02:04;;;;;;;6.40;2.90;;;1.50;99.90;;;;;;7316996;32;20135;-63
2022/04/10 00:06:06;;;;;;;6.07;2.72;;;1.70;99.90;;;;;;7321823;32;20135;-64
2022/04/10 00:10:08;;;;;;;7.47;2.67;;;2.00;99.90;;;;;;7320857;32;20186;-60
2022/04/10 00:14:09;;;;;;;9.13;2.62;;;2.30;99.90;;;;;;7321354;32;20130;-61
2022/04/10 00:18:11;;;;;;;8.45;2.75;;;2.30;99.90;;;;;;7320990;32;20108;-59
2022/04/10 00:22:13;;;;;;;6.25;2.62;;;2.40;99.90;;;;;;7321557;32;20112;-60
2022/04/10 00:26:14;;;;;;;7.55;2.85;;;2.40;99.90;;;;;;7321379;32;20496;-61
2022/04/10 00:30:17;;;;;;;5.80;2.65;;;2.40;99.90;;;;;;7319967;32;20108;-59
2022/04/10 00:34:20;;;;;;;8.20;2.65;;;2.30;99.90;;;;;;7321983;32;20115;-60
2022/04/10 00:38:21;;;;;;;8.20;3.10;;;2.30;99.90;;;;;;7319493;32;20523;-61
2022/04/10 00:42:30;;;;;;;5.82;3.00;;;2.20;99.90;;;;;;7319481;32;20133;-60
2022/04/10 00:46:32;;;;;;;10.05;2.67;;;2.20;99.90;;;;;;7323727;32;20213;-61
2022/04/10 00:50:34;;;;;;;7.05;3.00;;;2.10;99.90;;;;;;7309042;32;20221;-59
2022/04/10 00:54:36;;;;;;;9.20;2.80;;;1.90;99.90;;;;;;7320291;32;20194;-61
2022/04/10 00:58:38;;;;;;;8.10;3.25;;;2.00;99.90;;;;;;7321681;32;20558;-60
2022/04/10 01:02:40;;;;;;;8.20;3.12;;;2.10;99.90;;;;;;7317645;32;20114;-58
2022/04/10 01:06:43;;;;;;;6.97;3.30;;;2.10;99.90;;;;;;7319548;32;20438;-58
2022/04/10 01:10:44;;;;;;;8.77;3.65;;;2.30;99.90;;;;;;7316813;32;20202;-58
2022/04/10 01:14:47;;;;;;;6.68;2.85;;;2.40;99.90;;;;;;7318061;32;20221;-59
2022/04/10 01:18:50;;;;;;;8.05;3.17;;;2.30;99.90;;;;;;7313817;32;20194;-59
2022/04/10 01:22:53;;;;;;;8.10;2.90;;;2.30;99.90;;;;;;7318203;32;20457;-59
2022/04/10 01:26:54;;;;;;;9.75;2.97;;;2.30;99.90;;;;;;7317975;32;20166;-59
2022/04/10 01:30:56;;;;;;;8.13;2.42;;;2.20;99.90;;;;;;7315030;32;20111;-59
2022/04/10 01:35:00;;;;;;;5.62;2.67;;;2.00;99.90;;;;;;7321434;32;20263;-60
2022/04/10 01:39:04;;;;;;;7.30;2.50;;;1.80;99.90;;;;;;7318450;32;20116;-59
2022/04/10 01:43:06;;;;;;;5.03;2.53;;;1.60;99.90;;;;;;7319279;32;20134;-59
2022/04/10 01:47:09;;;;;;;4.15;2.15;;;1.50;99.90;;;;;;7312871;32;20641;-60
2022/04/10 01:51:11;;;;;;;3.72;2.37;;;1.30;99.90;;;;;;7319656;32;20126;-60
2022/04/10 01:55:13;;;;;;;4.93;2.00;;;1.20;99.90;;;;;;7315163;32;20214;-59
2022/04/10 01:59:15;;;;;;;6.57;2.15;;;1.10;99.90;;;;;;7317127;32;20131;-59
2022/04/10 02:03:16;;;;;;;5.45;2.40;;;0.90;99.90;;;;;;7319008;32;20649;-59
2022/04/10 02:07:18;;;;;;;6.82;2.40;;;0.80;99.90;;;;;;7317622;32;20590;-59
2022/04/10 02:11:21;;;;;;;3.53;2.35;;;0.80;99.90;;;;;;7317845;32;20620;-59
2022/04/10 02:15:23;;;;;;;6.70;2.28;;;0.70;99.90;;;;;;7318604;32;20374;-59
2022/04/10 02:19:24;;;;;;;6.18;2.53;;;0.60;99.90;;;;;;7311013;32;20374;-58
2022/04/10 02:23:26;;;;;;;4.18;2.40;;;0.60;99.90;;;;;;7316956;32;20463;-59
2022/04/10 02:27:28;;;;;;;7.40;2.67;;;0.60;99.90;;;;;;7316525;32;20213;-59
2022/04/10 02:31:29;;;;;;;5.78;2.80;;;0.50;99.90;;;;;;7316046;32;20134;-59
2022/04/10 02:35:31;;;;;;;4.93;2.65;;;0.40;99.90;;;;;;7314941;32;20212;-58
2022/04/10 02:39:32;;;;;;;8.43;2.83;;;0.50;99.90;;;;;;7311540;32;20214;-59
2022/04/10 02:43:34;;;;;;;4.57;2.50;;;0.50;99.90;;;;;;7309704;32;20460;-59
2022/04/10 02:47:36;;;;;;;4.30;2.45;;;0.40;99.90;;;;;;7314616;32;20127;-61
2022/04/10 02:51:37;;;;;;;6.43;2.80;;;0.40;99.90;;;;;;7317819;32;20511;-60
2022/04/10 02:55:39;;;;;;;6.20;3.72;;;0.40;99.90;;;;;;7314118;32;20237;-59
2022/04/10 02:59:41;;;;;;;4.82;2.45;;;0.40;99.90;;;;;;7308271;32;20567;-59
2022/04/10 03:03:42;;;;;;;4.68;3.10;;;0.40;99.90;;;;;;7312702;32;20162;-59
2022/04/10 03:07:44;;;;;;;8.70;3.20;;;0.30;99.90;;;;;;7315891;32;20229;-59
2022/04/10 03:11:46;;;;;;;8.13;2.85;;;0.30;99.90;;;;;;7319411;32;20218;-59
2022/04/10 03:15:47;;;;;;;4.45;3.08;;;0.30;99.90;;;;;;7316405;32;20116;-59
2022/04/10 03:19:49;;;;;;;7.18;3.08;;;0.30;99.90;;;;;;7321038;32;20217;-59
2022/04/10 03:23:51;;;;;;;4.47;2.87;;;0.30;99.90;;;;;;7321824;32;20115;-61
2022/04/10 03:27:52;;;;;;;8.18;3.37;;;0.20;99.90;;;;;;7321319;32;20498;-59
2022/04/10 03:31:54;;;;;;;6.90;3.30;;;0.20;99.90;;;;;;7317804;32;20111;-59
2022/04/10 03:35:55;;;;;;;7.70;3.42;;;0.20;99.90;;;;;;7321651;32;20601;-59
2022/04/10 03:39:57;;;;;;;7.22;3.30;;;0.10;99.90;;;;;;7317807;32;20220;-60
2022/04/10 03:43:59;;;;;;;10.00;3.37;;;0.10;99.90;;;;;;7322107;32;20241;-60
2022/04/10 03:48:01;;;;;;;10.80;3.60;;;0.10;99.90;;;;;;7310580;32;20119;-59
2022/04/10 03:52:02;;;;;;;5.57;3.60;;;0.00;99.90;;;;;;7322748;32;20138;-60
2022/04/10 03:56:04;;;;;;;7.35;3.40;;;0.00;99.90;;;;;;7316822;32;20569;-60
2022/04/10 04:00:07;;;;;;;7.95;3.62;;;-0.10;99.90;;;;;;7313370;32;20126;-59
2022/04/10 04:04:08;;;;;;;6.60;3.30;;;-0.10;99.90;;;;;;7316629;32;20599;-62
2022/04/10 04:08:10;;;;;;;6.60;3.72;;;-0.10;99.90;;;;;;7318578;32;20100;-60
2022/04/10 04:12:12;;;;;;;7.03;3.50;;;-0.10;99.90;;;;;;7316504;32;20171;-60
2022/04/10 04:16:13;;;;;;;6.10;3.30;;;-0.20;99.90;;;;;;7321331;32;20110;-58
2022/04/10 04:20:15;;;;;;;9.55;3.45;;;-0.10;99.90;;;;;;7315699;32;20111;-58
2022/04/10 04:24:17;;;;;;;6.82;3.42;;;-0.10;99.90;;;;;;7319876;32;20134;-62
2022/04/10 04:28:19;;;;;;;9.35;3.60;;;0.00;99.90;;;;;;7319164;32;20206;-59
2022/04/10 04:32:21;;;;;;;7.82;3.05;;;-0.10;99.90;;;;;;7318511;32;20107;-59
2022/04/10 04:36:22;;;;;;;6.75;3.80;;;-0.10;99.90;;;;;;7318760;32;20142;-59
2022/04/10 04:40:24;;;;;;;10.77;4.07;;;-0.20;99.90;;;;;;7318264;32;20163;-59
2022/04/10 04:44:26;;;;;;;5.03;2.97;;;-0.20;99.90;;;;;;7321579;32;20210;-59
2022/04/10 04:48:27;;;;;;;6.65;3.85;;;-0.20;99.90;;;;;;7318786;32;20110;-60
2022/04/10 04:52:29;;;;;;;9.30;3.37;;;-0.20;99.90;;;;;;7319565;32;20227;-59
2022/04/10 04:56:31;;;;;;;9.82;3.65;;;-0.20;99.90;;;;;;7317839;32;20107;-60
2022/04/10 05:00:32;;;;;;;8.43;4.00;;;-0.20;99.90;;;;;;7316433;32;20546;-59
2022/04/10 05:04:34;;;;;;;5.95;3.50;;;-0.20;99.90;;;;;;7314948;32;20129;-60
2022/04/10 05:08:36;;;;;;;7.75;3.60;;;-0.10;99.90;;;;;;7318613;32;20343;-59
2022/04/10 05:12:37;;;;;;;8.52;5.32;;;-0.10;99.90;;;;;;7317050;32;20444;-60
2022/04/10 05:16:39;;;;;;;6.95;3.35;;;-0.10;99.90;;;;;;7313978;32;20221;-60
2022/04/10 05:20:41;;;;;;;9.40;3.60;;;-0.10;99.90;;;;;;7319430;32;20146;-60
2022/04/10 05:24:42;;;;;;;9.18;3.90;;;-0.10;99.90;;;;;;7319964;32;20540;-58
2022/04/10 05:28:44;;;;;;;8.77;4.22;;;0.00;99.90;;;;;;7318117;32;20134;-58
2022/04/10 05:32:46;;;;;;;9.18;4.12;;;0.00;99.90;;;;;;7318712;32;20115;-61
2022/04/10 05:36:47;;;;;;;7.45;3.85;;;0.10;99.90;;;;;;7320773;32;20517;-59
2022/04/10 05:40:53;;;;;;;10.32;3.95;;;0.20;99.90;;;;;;7311585;32;20145;-59
2022/04/10 05:45:03;;;;;;;8.80;3.60;;;0.20;99.90;;;;;;7316753;32;20199;-59
2022/04/10 05:49:06;;;;;;;8.57;4.72;;;0.20;99.90;;;;;;7316856;32;20132;-59
2022/04/10 05:53:08;;;;;;;5.47;3.53;;;0.30;99.90;;;;;;7316379;32;20167;-60
2022/04/10 05:57:09;;;;;;;8.82;4.22;;;0.40;99.90;;;;;;7314057;32;20206;-59
2022/04/10 06:01:11;;;;;;;11.05;4.35;;;0.60;99.90;;;;;;7318102;32;20133;-58
2022/04/10 06:05:13;;;;;;;7.22;4.40;;;0.60;99.90;;;;;;7317339;32;20771;-58
2022/04/10 06:09:15;;;;;;;10.77;5.55;;;0.70;99.90;;;;;;7313098;32;20692;-59
2022/04/10 06:13:17;;;;;;;7.40;4.20;;;0.80;99.90;;;;;;7320367;32;20177;-59
2022/04/10 06:17:19;;;;;;;10.25;5.37;;;0.90;99.90;;;;;;7313803;32;20307;-60
2022/04/10 06:21:24;;;;;;;12.05;6.82;;;0.90;99.90;;;;;;7314118;32;20127;-64
2022/04/10 06:25:26;;;;;;;14.45;6.87;;;1.10;99.90;;;;;;7317905;32;20116;-60
2022/04/10 06:29:27;;;;;;;18.10;6.97;;;1.20;99.90;;;;;;7313472;32;20823;-61
2022/04/10 06:33:29;;;;;;;15.68;7.62;;;1.40;99.90;;;;;;7315210;32;20202;-61
2022/04/10 06:37:30;;;;;;;12.85;7.45;;;1.60;99.90;;;;;;7318389;32;20115;-60
2022/04/10 06:41:33;;;;;;;16.50;8.57;;;1.90;99.90;;;;;;7318512;32;20232;-61
2022/04/10 06:45:34;;;;;;;14.98;8.00;;;2.00;99.90;;;;;;7323860;32;20724;-61
2022/04/10 06:49:36;;;;;;;14.48;7.75;;;2.40;99.90;;;;;;7322104;32;20139;-60
2022/04/10 06:53:37;;;;;;;16.02;7.65;;;2.90;99.90;;;;;;7319741;32;20123;-61
2022/04/10 06:57:39;;;;;;;13.45;6.68;;;3.30;99.90;;;;;;7322051;32;20221;-62
2022/04/10 07:01:41;;;;;;;11.48;5.95;;;3.80;99.90;;;;;;7316345;32;20162;-60
2022/04/10 07:05:44;;;;;;;8.77;5.50;;;4.10;99.90;;;;;;7319961;32;20720;-61
2022/04/10 07:09:45;;;;;;;12.93;5.93;;;4.40;99.90;;;;;;7313703;32;20543;-60
2022/04/10 07:13:47;;;;;;;10.85;4.95;;;4.60;99.90;;;;;;7314960;32;20122;-61
2022/04/10 07:17:48;;;;;;;8.43;5.05;;;4.80;99.90;;;;;;7323099;32;20130;-60
2022/04/10 07:26:12;;;;;;;9.10;4.53;;;5.00;99.90;;;;;;7320265;32;20115;-60
2022/04/10 07:30:14;;;;;;;9.90;4.75;;;5.20;99.90;;;;;;7321516;32;20134;-60
2022/04/10 07:34:15;;;;;;;9.65;4.18;;;5.10;99.90;;;;;;7320595;32;20512;-60
2022/04/10 07:38:17;;;;;;;8.32;4.37;;;5.30;99.90;;;;;;7320301;32;20107;-60
2022/04/10 07:42:19;;;;;;;8.48;4.22;;;6.00;99.90;;;;;;7320338;32;20112;-60
2022/04/10 07:51:01;;;;;;;7.03;3.37;;;7.20;99.90;;;;;;7318771;32;20115;-61
2022/04/10 07:55:03;;;;;;;5.65;3.17;;;7.20;99.90;;;;;;7311966;32;20186;-61
2022/04/10 07:59:04;;;;;;;8.52;3.28;;;7.60;99.90;;;;;;7316723;32;20104;-60
2022/04/10 08:03:06;;;;;;;8.32;3.50;;;7.90;99.90;;;;;;7318673;32;20115;-59
2022/04/10 08:07:08;;;;;;;11.77;3.00;;;8.50;99.90;;;;;;7316118;32;20152;-57
2022/04/10 08:11:09;;;;;;;4.90;2.03;;;9.10;99.90;;;;;;7314381;32;20190;-58
2022/04/10 08:15:11;;;;;;;7.22;2.72;;;9.70;99.90;;;;;;7314688;32;20483;-61
2022/04/10 08:19:13;;;;;;;11.40;2.65;;;9.90;99.90;;;;;;7313353;32;20927;-62
2022/04/10 08:23:14;;;;;;;6.45;2.15;;;10.30;99.90;;;;;;7318416;32;20641;-61
2022/04/10 08:27:17;;;;;;;7.97;2.58;;;10.30;99.90;;;;;;7319802;32;20496;-62
2022/04/10 08:31:19;;;;;;;6.45;2.67;;;10.10;99.90;;;;;;7319748;32;20798;-60
2022/04/10 08:35:20;;;;;;;8.15;3.30;;;10.30;99.90;;;;;;7319335;32;20485;-61
2022/04/10 08:39:23;;;;;;;7.85;2.58;;;10.60;99.90;;;;;;7318888;32;20103;-62
2022/04/10 08:43:26;;;;;;;9.05;3.28;;;10.50;99.90;;;;;;7319129;32;20818;-62
2022/04/10 08:47:29;;;;;;;6.97;2.40;;;9.90;99.90;;;;;;7318347;32;20631;-63
2022/04/10 08:51:31;;;;;;;8.30;2.55;;;9.80;99.90;;;;;;7318645;32;20554;-63
2022/04/10 08:55:33;;;;;;;7.97;2.35;;;10.30;99.90;;;;;;7312698;32;20746;-61
2022/04/10 08:59:34;;;;;;;4.93;2.12;;;10.30;99.90;;;;;;7307517;32;20130;-60
2022/04/10 09:03:37;;;;;;;4.90;1.80;;;10.80;99.90;;;;;;7320434;32;20184;-61
2022/04/10 09:07:39;;;;;;;6.65;2.37;;;10.10;99.90;;;;;;7318256;32;20276;-61
2022/04/10 09:11:41;;;;;;;8.13;2.25;;;9.90;99.90;;;;;;7320857;32;20627;-61
2022/04/10 09:15:42;;;;;;;5.68;2.00;;;9.70;99.90;;;;;;7316390;32;20108;-60
2022/04/10 09:19:48;;;;;;;6.05;1.83;;;9.70;99.90;;;;;;7319554;32;20138;-60
2022/04/10 09:24:01;;;;;;;4.90;1.83;;;9.40;99.90;;;;;;7316990;32;20732;-61
2022/04/10 09:28:02;;;;;;;;;;;9.20;99.90;;;;;;7318139;32;20194;-61
2022/04/10 09:32:14;;;;;;;7.43;1.65;;;9.10;99.90;;;;;;7320905;32;20110;-61
2022/04/10 09:36:28;;;;;;;4.47;1.60;;;9.20;99.90;;;;;;7316373;32;20122;-61
2022/04/10 09:40:33;;;;;;;5.15;2.55;;;9.10;99.90;;;;;;7319604;32;20116;-62
2022/04/10 09:44:39;;;;;;;4.07;1.30;;;8.60;99.90;;;;;;7319216;32;20234;-61
2022/04/10 09:48:41;;;;;;;6.30;1.87;;;8.30;99.90;;;;;;7324852;32;20268;-62
2022/04/10 09:52:42;;;;;;;6.93;1.52;;;8.00;99.90;;;;;;7317460;32;20115;-61
2022/04/10 09:56:44;;;;;;;6.12;1.60;;;8.10;99.90;;;;;;7314661;32;20139;-63
2022/04/10 10:00:47;;;;;;;8.57;2.00;;;7.80;99.90;;;;;;7317302;32;20527;-61
2022/04/10 10:04:49;;;;;;;7.35;1.80;;;8.60;99.90;;;;;;7319198;32;20534;-62
2022/04/10 10:08:51;;;;;;;4.05;1.80;;;10.00;99.90;;;;;;7315632;32;20119;-62
2022/04/10 10:12:53;;;;;;;6.07;1.65;;;11.40;99.90;;;;;;7310150;32;20126;-61
2022/04/10 10:17:01;;;;;;;4.62;1.55;;;12.70;99.90;;;;;;7316199;32;20151;-64
2022/04/10 10:21:03;;;;;;;6.00;1.92;;;13.90;96.60;;;;;;7318039;32;20260;-63
2022/04/10 10:25:33;;;;;;;4.55;1.42;;;13.20;95.70;;;;;;7315584;32;20189;-62
2022/04/10 10:30:06;;;;;;;8.13;1.67;;;11.90;94.80;;;;;;7315096;32;20111;-61
2022/04/10 10:34:09;;;;;;;5.40;1.60;;;10.70;99.10;;;;;;7308016;32;20535;-62
2022/04/10 10:38:21;;;;;;;11.48;2.20;;;11.10;99.90;;;;;;7309277;32;20660;-62
2022/04/10 10:42:23;;;;;;;4.82;1.80;;;10.70;99.90;;;;;;7315341;32;20145;-62
2022/04/10 10:46:32;;;;;;;4.60;1.37;;;11.30;99.90;;;;;;7308799;32;20107;-61
2022/04/10 10:50:34;;;;;;;6.20;1.23;;;11.30;99.90;;;;;;7317896;32;20268;-62
2022/04/10 10:54:45;;;;;;;4.87;1.37;;;11.10;99.90;;;;;;7318594;32;20643;-62
2022/04/10 10:58:48;;;;;;;5.65;1.40;;;11.60;99.90;;;;;;7315703;32;20135;-59
2022/04/10 11:02:52;;;;;;;4.18;0.90;;;11.60;99.20;;;;;;7316390;32;20558;-61
2022/04/10 11:07:08;;;;;;;3.53;0.80;;;11.90;95.30;;;;;;7316896;32;20210;-60
2022/04/10 11:11:10;;;;;;;7.00;1.23;;;12.30;92.80;;;;;;7311429;32;20920;-61
2022/04/10 11:15:21;;;;;;;8.68;1.52;;;12.40;90.70;;;;;;7316305;32;20112;-60
2022/04/10 11:19:23;;;;;;;4.40;1.20;;;12.80;92.60;;;;;;7316528;32;20139;-59
2022/04/10 11:23:29;;;;;;;3.12;1.05;;;12.40;91.40;;;;;;7314373;32;20130;-59
2022/04/10 11:27:49;;;;;;;4.22;1.08;;;12.50;91.80;;;;;;7316366;32;20173;-59
2022/04/10 11:31:53;;;;;;;5.20;1.33;;;12.40;91.10;;;;;;7314737;32;20206;-61
2022/04/10 11:35:56;;;;;;;2.90;0.70;;;11.60;94.80;;;;;;7319685;32;20127;-60
2022/04/10 11:40:00;;;;;;;4.35;0.98;;;10.80;92.70;;;;;;7313616;32;20198;-61
2022/04/10 11:44:04;;;;;;;4.57;0.60;;;10.50;98.00;;;;;;7316107;32;20142;-61
2022/04/10 11:48:07;;;;;;;2.95;0.68;;;11.10;96.00;;;;;;7318925;32;20107;-61
2022/04/10 11:52:09;;;;;;;3.15;0.93;;;11.70;94.60;;;;;;7320803;32;20112;-59
2022/04/10 11:56:14;;;;;;;5.65;0.88;;;11.70;91.10;;;;;;7317701;32;20112;-59
2022/04/10 12:00:16;;;;;;;5.53;0.70;;;11.20;90.50;;;;;;7314171;32;20701;-60
2022/04/10 12:04:19;;;;;;;3.67;0.60;;;11.70;87.80;;;;;;7316681;32;20112;-62
2022/04/10 12:08:22;;;;;;;3.00;0.70;;;12.20;88.90;;;;;;7313210;32;20171;-61
2022/04/10 12:12:38;;;;;;;1.85;0.60;;;12.50;85.80;;;;;;7322323;32;20135;-61
2022/04/10 12:16:41;;;;;;;3.10;0.80;;;12.00;91.90;;;;;;7318696;32;20131;-61
2022/04/10 12:20:44;;;;;;;3.95;0.60;;;12.40;84.50;;;;;;7316950;32;20139;-59
2022/04/10 12:24:46;;;;;;;3.40;1.23;;;12.60;84.10;;;;;;7322351;32;20649;-60
2022/04/10 12:28:48;;;;;;;2.92;0.80;;;12.70;82.40;;;;;;7317162;32;20112;-62
2022/04/10 12:32:50;;;;;;;2.40;0.70;;;11.80;84.00;;;;;;7320842;32;20111;-61
2022/04/10 12:36:52;;;;;;;4.93;0.88;;;11.90;81.40;;;;;;7313309;32;20129;-62
2022/04/10 12:41:04;;;;;;;2.15;0.80;;;12.00;90.90;;;;;;7320060;32;20614;-61
2022/04/10 12:45:11;;;;;;;3.47;0.60;;;12.00;86.90;;;;;;7320567;32;20103;-61
2022/04/10 12:49:18;;;;;;;3.03;0.77;;;11.60;86.20;;;;;;7319456;32;20112;-61
2022/04/10 12:53:19;;;;;;;2.95;0.65;;;11.60;88.90;;;;;;7317946;32;20134;-61
2022/04/10 12:57:28;;;;;;;2.85;0.60;;;11.60;89.40;;;;;;7318567;32;20118;-61
2022/04/10 13:01:32;;;;;;;3.45;1.00;;;11.10;89.80;;;;;;7317356;32;20217;-62
2022/04/10 13:05:34;;;;;;;4.03;1.08;;;10.70;91.30;;;;;;7319306;32;20168;-60
2022/04/10 13:09:36;;;;;;;5.25;0.90;;;11.00;90.00;;;;;;7322411;32;20246;-62
2022/04/10 13:14:00;;;;;;;1.58;0.45;;;11.70;88.60;;;;;;7319629;32;20202;-64
2022/04/10 13:18:06;;;;;;;2.65;0.40;;;11.80;79.60;;;;;;7318548;32;20555;-62
2022/04/10 13:22:08;;;;;;;2.87;0.60;;;11.50;76.30;;;;;;7317307;32;20237;-62
2022/04/10 13:26:28;;;;;;;1.83;0.63;;;11.60;79.40;;;;;;7314930;32;20739;-62
2022/04/10 13:30:30;;;;;;;3.85;0.90;;;11.20;82.30;;;;;;7311111;32;20214;-62
2022/04/10 13:34:31;;;;;;;4.55;0.55;;;11.50;82.70;;;;;;7314484;32;20557;-62
2022/04/10 13:38:33;;;;;;;3.60;0.70;;;11.70;79.80;;;;;;7316946;32;20115;-61
2022/04/10 13:42:35;;;;;;;3.75;0.57;;;12.00;76.50;;;;;;7317710;32;20111;-61
2022/04/10 13:46:36;;;;;;;3.70;0.65;;;12.60;65.80;;;;;;7312098;32;20111;-61
2022/04/10 13:50:38;;;;;;;4.10;1.40;;;12.50;66.90;;;;;;7315079;32;20108;-61
2022/04/10 13:54:40;;;;;;;4.45;1.00;;;11.80;78.10;;;;;;7318386;32;20111;-61
2022/04/10 13:58:42;;;;;;;3.00;0.88;;;12.10;74.10;;;;;;7316822;32;20127;-60
2022/04/10 14:02:43;;;;;;;4.95;0.93;;;12.30;70.00;;;;;;7312683;32;20194;-60
2022/04/10 14:06:45;;;;;;;2.45;1.20;;;11.90;71.40;;;;;;7312492;32;20502;-61
2022/04/10 14:10:47;;;;;;;3.55;0.80;;;12.50;71.40;;;;;;7317329;32;20114;-63
2022/04/10 14:14:49;;;;;;;7.57;0.93;;;12.70;69.30;;;;;;7315357;32;20111;-61
2022/04/10 14:18:51;;;;;;;3.30;0.73;;;12.80;68.50;;;;;;7317211;32;20222;-62
2022/04/10 14:22:53;;;;;;;2.65;0.90;;;12.70;60.70;;;;;;7318875;32;20103;-61
2022/04/10 14:26:57;;;;;;;2.55;0.70;;;12.90;63.60;;;;;;7311119;32;20103;-61
2022/04/10 14:30:59;;;;;;;6.15;0.80;;;13.20;61.00;;;;;;7318537;32;20142;-61
2022/04/10 14:35:03;;;;;;;1.80;0.60;;;13.60;63.30;;;;;;7314940;32;20714;-61
2022/04/10 14:39:05;;;;;;;2.40;0.65;;;13.60;62.40;;;;;;7315051;32;20126;-60
2022/04/10 14:43:06;;;;;;;3.15;0.98;;;13.90;59.70;;;;;;7318193;32;20194;-61
2022/04/10 14:47:14;;;;;;;;;;;14.00;61.70;;;;;;7318906;32;20682;-60
2022/04/10 14:51:17;;;;;;;2.85;0.95;;;13.70;61.40;;;;;;7321437;32;20113;-61
2022/04/10 14:55:19;;;;;;;1.80;0.70;;;12.80;63.60;;;;;;7320788;32;20127;-60
2022/04/10 14:59:20;;;;;;;3.85;0.70;;;12.30;67.70;;;;;;7321387;32;20146;-61
2022/04/10 15:03:23;;;;;;;2.85;0.60;;;12.20;69.30;;;;;;7321219;32;20401;-61
2022/04/10 15:07:24;;;;;;;1.58;0.70;;;12.10;68.20;;;;;;7323771;32;20161;-60
2022/04/10 15:11:26;;;;;;;2.05;0.70;;;12.20;65.60;;;;;;7325425;32;20130;-60
2022/04/10 15:15:28;;;;;;;4.40;1.58;;;11.90;67.40;;;;;;7325416;32;20111;-61
2022/04/10 15:19:31;;;;;;;2.95;0.95;;;11.70;68.60;;;;;;7326099;32;20488;-60
2022/04/10 15:23:33;;;;;;;4.53;0.93;;;11.50;69.40;;;;;;7326058;32;20324;-61
2022/04/10 15:27:34;;;;;;;2.90;1.17;;;11.20;74.50;;;;;;7325548;32;20580;-61
2022/04/10 15:31:36;;;;;;;3.87;0.82;;;10.90;74.10;;;;;;7325602;32;20107;-60
2022/04/10 15:35:40;;;;;;;3.92;1.37;;;10.80;73.10;;;;;;7325447;32;20174;-62
2022/04/10 15:39:41;;;;;;;2.95;1.05;;;10.60;74.50;;;;;;7325635;32;20225;-61
2022/04/10 15:43:43;;;;;;;4.20;1.12;;;10.70;75.10;;;;;;7325401;32;20215;-60
2022/04/10 15:47:45;;;;;;;6.32;1.30;;;10.70;70.90;;;;;;7320633;32;20111;-60
2022/04/10 15:51:46;;;;;;;4.00;1.27;;;10.70;74.90;;;;;;7316968;32;20165;-60
2022/04/10 15:55:48;;;;;;;4.90;1.30;;;10.90;73.70;;;;;;7315943;32;20527;-61
2022/04/10 15:59:50;;;;;;;3.42;1.12;;;11.00;74.60;;;;;;7323426;32;20198;-61
2022/04/10 16:03:54;;;;;;;4.05;1.08;;;11.10;75.80;;;;;;7314379;32;20123;-61
2022/04/10 16:07:55;;;;;;;3.37;0.73;;;11.10;72.80;;;;;;7321340;32;20277;-61
2022/04/10 16:11:57;;;;;;;1.17;0.50;;;11.20;70.90;;;;;;7316268;32;20212;-60
2022/04/10 16:15:59;;;;;;;3.80;0.90;;;11.50;69.60;;;;;;7320894;32;20139;-60
2022/04/10 16:20:03;;;;;;;6.50;1.62;;;11.50;66.60;;;;;;7324415;32;20232;-60
2022/04/10 16:24:05;;;;;;;2.78;0.90;;;11.40;63.50;;;;;;7320039;32;20616;-58
2022/04/10 16:32:27;;;;;;;2.97;0.80;;;11.20;70.00;;;;;;7320373;32;20111;-61
2022/04/10 16:36:29;;;;;;;4.18;0.80;;;11.20;67.30;;;;;;7323139;32;20111;-61
2022/04/10 16:40:31;;;;;;;3.00;0.75;;;11.00;72.40;;;;;;7317084;32;20305;-59
2022/04/10 16:44:35;;;;;;;3.15;0.82;;;10.90;69.90;;;;;;7317365;32;20127;-61
2022/04/10 16:48:37;;;;;;;1.12;0.50;;;10.80;69.50;;;;;;7313100;32;20099;-60
2022/04/10 16:52:41;;;;;;;3.12;0.60;;;10.80;70.80;;;;;;7321306;32;20126;-60
2022/04/10 16:56:42;;;;;;;1.95;0.70;;;10.80;73.50;;;;;;7317965;32;20133;-60
2022/04/10 17:00:44;;;;;;;1.75;0.68;;;10.90;69.00;;;;;;7316330;32;20108;-61
2022/04/10 17:04:47;;;;;;;4.72;0.80;;;10.80;70.00;;;;;;7317136;32;20342;-61
2022/04/10 17:08:49;;;;;;;2.65;0.52;;;10.70;71.50;;;;;;7316326;32;20110;-59
2022/04/10 17:12:50;;;;;;;3.12;0.70;;;10.80;71.80;;;;;;7320280;32;20214;-59
2022/04/10 17:16:52;;;;;;;3.20;0.90;;;10.70;78.40;;;;;;7320275;32;20526;-59
2022/04/10 17:20:54;;;;;;;2.90;0.73;;;10.60;66.90;;;;;;7316389;32;20806;-60
2022/04/10 17:24:56;;;;;;;4.00;0.80;;;10.30;71.10;;;;;;7321921;32;20206;-61
2022/04/10 17:28:58;;;;;;;2.90;0.93;;;10.40;71.50;;;;;;7314493;32;20115;-60
2022/04/10 17:33:00;;;;;;;1.98;0.40;;;10.10;75.70;;;;;;7320234;32;20120;-61
2022/04/10 17:37:02;;;;;;;2.92;0.80;;;9.90;75.10;;;;;;7316099;32;20195;-61
2022/04/10 17:41:04;;;;;;;2.78;0.60;;;9.70;77.30;;;;;;7318669;32;20103;-62
2022/04/10 17:45:06;;;;;;;1.90;0.68;;;9.50;77.60;;;;;;7310638;32;20289;-61
2022/04/10 17:49:10;;;;;;;3.92;0.75;;;9.30;80.00;;;;;;7316405;32;20214;-61
2022/04/10 17:53:12;;;;;;;3.55;0.75;;;9.20;87.20;;;;;;7316426;32;20139;-60
2022/04/10 17:57:14;;;;;;;2.85;0.80;;;8.90;93.80;;;;;;7315389;32;20111;-60
2022/04/10 18:01:16;;;;;;;3.00;0.68;;;8.70;94.90;;;;;;7315593;32;20111;-60
2022/04/10 18:05:18;;;;;;;1.95;0.90;;;8.40;95.90;;;;;;7321533;32;20357;-60
2022/04/10 18:09:19;;;;;;;2.95;0.75;;;8.20;99.90;;;;;;7310970;32;20130;-59
2022/04/10 18:13:21;;;;;;;1.92;0.93;;;8.00;99.90;;;;;;7318732;32;20194;-59
2022/04/10 18:17:23;;;;;;;3.92;1.10;;;7.80;99.90;;;;;;7315768;32;20111;-59
2022/04/10 18:21:24;;;;;;;3.45;0.65;;;7.50;99.90;;;;;;7316568;32;20216;-60
2022/04/10 18:25:26;;;;;;;2.92;1.10;;;7.30;99.90;;;;;;7317448;32;20141;-59
2022/04/10 18:29:28;;;;;;;4.70;0.80;;;7.10;99.90;;;;;;7317413;32;20115;-60
2022/04/10 18:33:29;;;;;;;3.10;1.15;;;6.90;99.90;;;;;;7316046;32;20111;-58
2022/04/10 18:37:31;;;;;;;5.35;1.10;;;6.70;99.90;;;;;;7316006;32;20234;-60
2022/04/10 18:41:35;;;;;;;4.30;1.27;;;6.50;99.90;;;;;;7318024;32;20222;-59
2022/04/10 18:45:38;;;;;;;4.65;1.30;;;6.30;99.90;;;;;;7318797;32;20108;-58
2022/04/10 18:49:44;;;;;;;5.70;1.37;;;6.20;99.90;;;;;;7319535;32;20119;-58
2022/04/10 18:53:46;;;;;;;3.62;1.67;;;6.00;99.90;;;;;;7319763;32;20869;-59
2022/04/10 18:57:48;;;;;;;5.00;2.00;;;5.80;99.90;;;;;;7319990;32;20134;-58
2022/04/10 19:01:49;;;;;;;9.70;3.92;;;5.60;99.90;;;;;;7317314;32;20115;-59
2022/04/10 19:05:53;;;;;;;7.90;3.67;;;5.50;99.90;;;;;;7317011;32;20190;-58
2022/04/10 19:09:55;;;;;;;5.78;2.95;;;5.30;99.90;;;;;;7317551;32;20112;-58
2022/04/10 19:13:57;;;;;;;7.78;1.48;;;5.20;99.90;;;;;;7318144;32;20417;-58
2022/04/10 19:17:58;;;;;;;3.95;1.20;;;5.00;99.90;;;;;;7317822;32;20226;-58
2022/04/10 19:22:04;;;;;;;3.53;0.85;;;5.00;99.90;;;;;;7318179;32;20237;-59
2022/04/10 19:26:05;;;;;;;3.97;1.48;;;4.90;99.90;;;;;;7313761;32;20194;-58
2022/04/10 19:30:08;;;;;;;2.78;1.10;;;4.80;99.90;;;;;;7317495;32;20112;-60
2022/04/10 19:34:09;;;;;;;3.47;1.10;;;4.70;99.90;;;;;;7319685;32;20122;-58
2022/04/10 19:38:11;;;;;;;5.43;1.80;;;4.50;99.90;;;;;;7317061;32;20937;-58
2022/04/10 19:42:14;;;;;;;3.50;1.10;;;4.40;99.90;;;;;;7317680;32;20226;-60
2022/04/10 19:46:16;;;;;;;5.93;1.20;;;4.40;99.90;;;;;;7318396;32;20111;-58
2022/04/10 19:50:18;;;;;;;4.28;1.00;;;4.30;99.90;;;;;;7312020;32;20115;-59
2022/04/10 19:54:20;;;;;;;5.95;1.50;;;4.20;99.90;;;;;;7323390;32;20116;-60
2022/04/10 19:58:21;;;;;;;4.40;1.33;;;4.10;99.90;;;;;;7320936;32;20202;-60
2022/04/10 20:02:23;;;;;;;6.78;1.50;;;4.00;99.90;;;;;;7322399;32;20436;-60
2022/04/10 20:06:25;;;;;;;3.33;1.20;;;4.00;99.90;;;;;;7320573;32;20112;-60
2022/04/10 20:10:28;;;;;;;3.08;1.40;;;3.90;99.90;;;;;;7320749;32;20546;-59
2022/04/10 20:14:32;;;;;;;6.90;1.52;;;3.80;99.90;;;;;;7322110;32;20138;-60
2022/04/10 20:18:33;;;;;;;7.25;1.55;;;3.80;99.90;;;;;;7315289;32;20233;-60
2022/04/10 20:22:35;;;;;;;6.53;1.65;;;3.70;99.90;;;;;;7320264;32;20102;-61
2022/04/10 20:26:37;;;;;;;7.68;1.87;;;3.60;99.90;;;;;;7313805;32;20115;-60
2022/04/10 20:30:38;;;;;;;6.37;2.08;;;3.60;99.90;;;;;;7319650;32;20107;-61
2022/04/10 20:34:41;;;;;;;4.85;1.70;;;3.50;99.90;;;;;;7317907;32;20130;-60
2022/04/10 20:38:42;;;;;;;4.65;1.77;;;3.50;99.90;;;;;;7314559;32;20765;-60
2022/04/10 20:42:45;;;;;;;6.28;2.00;;;3.40;99.90;;;;;;7320085;32;20107;-60
2022/04/10 20:46:47;;;;;;;6.12;2.08;;;3.30;99.90;;;;;;7312107;32;20113;-59
2022/04/10 20:50:48;;;;;;;6.00;2.28;;;3.20;99.90;;;;;;7318216;32;20683;-60
2022/04/10 20:54:50;;;;;;;4.22;2.25;;;3.20;99.90;;;;;;7312414;32;20103;-60
2022/04/10 20:58:52;;;;;;;7.93;2.62;;;3.10;99.90;;;;;;7301479;32;20853;-59
2022/04/10 21:02:53;;;;;;;3.80;2.20;;;3.10;99.90;;;;;;7312529;32;20151;-59
2022/04/10 21:06:56;;;;;;;7.53;2.40;;;3.00;99.90;;;;;;7311411;32;20194;-60
2022/04/10 21:10:57;;;;;;;4.87;2.37;;;2.90;99.90;;;;;;7320923;32;20518;-61
2022/04/10 21:15:00;;;;;;;10.18;2.50;;;2.90;99.90;;;;;;7321143;32;20103;-60
2022/04/10 21:19:02;;;;;;;6.55;2.70;;;2.80;99.90;;;;;;7319034;32;20275;-60
2022/04/10 21:23:04;;;;;;;9.25;2.55;;;2.80;99.90;;;;;;7315766;32;20162;-59
2022/04/10 21:27:06;;;;;;;6.97;2.65;;;2.70;99.90;;;;;;7320278;32;20519;-60